<?xml version="1.0" encoding="UTF-8" standalone="no" ?>
<gpx xmlns="http://www.topografix.com/GPX/1/1" creator="CompeGPS" version="1.1" xmlns:xsi="http://www.w3.org/2001/XMLSchema-instance" xsi:schemaLocation="http://www.topografix.com/GPX/1/1 http://www.topografix.com/GPX/1/1/gpx.xsd http://www.garmin.com/xmlschemas/GpxExtensions/v3 http://www.garmin.com/xmlschemas/GpxExtensionsv3.xsd http://www.garmin.com/xmlschemas/TrackPointExtension/v1 http://www.garmin.com/xmlschemas/TrackPointExtensionv1.xsd" xmlns:gpxtpx="http://www.garmin.com/xmlschemas/TrackPointExtension/v1">
  <metadata>
    <link href="http://www.compegps.com">
      <text>CompeGPS TEAM, SL</text>
    </link>
    <time>2014-03-13T13:50:55Z</time>
    <bounds maxlat="43.428771" maxlon="1.326566" minlat="43.406109" minlon="1.308480"/>
  </metadata>
<wpt lat="43.411734" lon="1.309559">
<ele>173</ele>
<name>Estantens</name>
</wpt>
<wpt lat="43.417993" lon="1.314812">
<ele>178</ele>
<name>Route D56</name>
</wpt>
<wpt lat="43.422849" lon="1.326175">
<ele>280</ele>
<name>Reservoirs</name>
</wpt>
<wpt lat="43.416297" lon="1.323223">
<ele>250</ele>
<name>Variante PR27</name>
</wpt>
<wpt lat="43.408224" lon="1.320838">
<ele>255</ele>
<name>La Tuilerie</name>
</wpt>
<trk>
    <name>Estantens</name>
    <trkseg>
      <trkpt lat="43.411734" lon="1.309559">
        <ele>171.7</ele>
        <time>2014-03-12T15:03:44Z</time>
        <name>Estantens</name>
      </trkpt>
      <trkpt lat="43.411711" lon="1.309393">
        <ele>171.3</ele>
        <time>2014-03-12T15:05:11Z</time>
      </trkpt>
      <trkpt lat="43.411601" lon="1.309288">
        <ele>170.5</ele>
        <time>2014-03-12T15:05:34Z</time>
      </trkpt>
      <trkpt lat="43.411532" lon="1.309194">
        <ele>170.4</ele>
        <time>2014-03-12T15:06:36Z</time>
      </trkpt>
      <trkpt lat="43.411558" lon="1.309054">
        <ele>169.6</ele>
        <time>2014-03-12T15:06:49Z</time>
      </trkpt>
      <trkpt lat="43.411585" lon="1.308899">
        <ele>169.1</ele>
        <time>2014-03-12T15:07:02Z</time>
      </trkpt>
      <trkpt lat="43.411621" lon="1.308763">
        <ele>168.9</ele>
        <time>2014-03-12T15:07:12Z</time>
      </trkpt>
      <trkpt lat="43.411653" lon="1.308611">
        <ele>168.2</ele>
        <time>2014-03-12T15:07:23Z</time>
      </trkpt>
      <trkpt lat="43.411726" lon="1.308480">
        <ele>167.8</ele>
        <time>2014-03-12T15:07:39Z</time>
      </trkpt>
      <trkpt lat="43.411821" lon="1.308493">
        <ele>167.3</ele>
        <time>2014-03-12T15:07:53Z</time>
      </trkpt>
      <trkpt lat="43.411947" lon="1.308586">
        <ele>166.0</ele>
        <time>2014-03-12T15:08:19Z</time>
      </trkpt>
      <trkpt lat="43.412046" lon="1.308608">
        <ele>166.7</ele>
        <time>2014-03-12T15:08:30Z</time>
      </trkpt>
      <trkpt lat="43.412135" lon="1.308678">
        <ele>166.9</ele>
        <time>2014-03-12T15:08:40Z</time>
      </trkpt>
      <trkpt lat="43.412218" lon="1.308748">
        <ele>166.9</ele>
        <time>2014-03-12T15:08:50Z</time>
      </trkpt>
      <trkpt lat="43.412298" lon="1.308831">
        <ele>167.1</ele>
        <time>2014-03-12T15:09:01Z</time>
      </trkpt>
      <trkpt lat="43.412381" lon="1.308921">
        <ele>167.2</ele>
        <time>2014-03-12T15:09:11Z</time>
      </trkpt>
      <trkpt lat="43.412483" lon="1.308982">
        <ele>168.0</ele>
        <time>2014-03-12T15:09:23Z</time>
      </trkpt>
      <trkpt lat="43.412571" lon="1.308997">
        <ele>168.4</ele>
        <time>2014-03-12T15:09:33Z</time>
      </trkpt>
      <trkpt lat="43.412658" lon="1.309013">
        <ele>168.3</ele>
        <time>2014-03-12T15:09:44Z</time>
      </trkpt>
      <trkpt lat="43.412772" lon="1.309044">
        <ele>168.1</ele>
        <time>2014-03-12T15:09:55Z</time>
      </trkpt>
      <trkpt lat="43.412884" lon="1.309059">
        <ele>168.1</ele>
        <time>2014-03-12T15:10:05Z</time>
      </trkpt>
      <trkpt lat="43.412993" lon="1.309104">
        <ele>168.0</ele>
        <time>2014-03-12T15:10:16Z</time>
      </trkpt>
      <trkpt lat="43.413085" lon="1.309126">
        <ele>168.3</ele>
        <time>2014-03-12T15:10:26Z</time>
      </trkpt>
      <trkpt lat="43.413196" lon="1.309184">
        <ele>168.8</ele>
        <time>2014-03-12T15:10:36Z</time>
      </trkpt>
      <trkpt lat="43.413283" lon="1.309240">
        <ele>169.5</ele>
        <time>2014-03-12T15:10:47Z</time>
      </trkpt>
      <trkpt lat="43.413386" lon="1.309286">
        <ele>169.8</ele>
        <time>2014-03-12T15:10:56Z</time>
      </trkpt>
      <trkpt lat="43.413486" lon="1.309331">
        <ele>169.4</ele>
        <time>2014-03-12T15:11:06Z</time>
      </trkpt>
      <trkpt lat="43.413593" lon="1.309379">
        <ele>169.3</ele>
        <time>2014-03-12T15:11:17Z</time>
      </trkpt>
      <trkpt lat="43.413708" lon="1.309427">
        <ele>169.6</ele>
        <time>2014-03-12T15:11:29Z</time>
      </trkpt>
      <trkpt lat="43.413817" lon="1.309479">
        <ele>169.8</ele>
        <time>2014-03-12T15:11:40Z</time>
      </trkpt>
      <trkpt lat="43.413937" lon="1.309556">
        <ele>169.8</ele>
        <time>2014-03-12T15:11:54Z</time>
      </trkpt>
      <trkpt lat="43.414077" lon="1.309624">
        <ele>169.4</ele>
        <time>2014-03-12T15:12:10Z</time>
      </trkpt>
      <trkpt lat="43.414180" lon="1.309707">
        <ele>169.6</ele>
        <time>2014-03-12T15:12:20Z</time>
      </trkpt>
      <trkpt lat="43.414305" lon="1.309770">
        <ele>169.2</ele>
        <time>2014-03-12T15:12:33Z</time>
      </trkpt>
      <trkpt lat="43.414412" lon="1.309825">
        <ele>169.3</ele>
        <time>2014-03-12T15:12:44Z</time>
      </trkpt>
      <trkpt lat="43.414513" lon="1.309882">
        <ele>169.8</ele>
        <time>2014-03-12T15:12:55Z</time>
      </trkpt>
      <trkpt lat="43.414620" lon="1.309954">
        <ele>169.8</ele>
        <time>2014-03-12T15:13:07Z</time>
      </trkpt>
      <trkpt lat="43.414725" lon="1.310024">
        <ele>169.8</ele>
        <time>2014-03-12T15:13:19Z</time>
      </trkpt>
      <trkpt lat="43.414873" lon="1.310117">
        <ele>169.8</ele>
        <time>2014-03-12T15:13:34Z</time>
      </trkpt>
      <trkpt lat="43.414993" lon="1.310199">
        <ele>169.5</ele>
        <time>2014-03-12T15:13:46Z</time>
      </trkpt>
      <trkpt lat="43.415093" lon="1.310261">
        <ele>168.8</ele>
        <time>2014-03-12T15:13:54Z</time>
      </trkpt>
      <trkpt lat="43.415213" lon="1.310314">
        <ele>170.4</ele>
        <time>2014-03-12T15:14:07Z</time>
      </trkpt>
      <trkpt lat="43.415315" lon="1.310396">
        <ele>170.1</ele>
        <time>2014-03-12T15:14:18Z</time>
      </trkpt>
      <trkpt lat="43.415421" lon="1.310464">
        <ele>170.0</ele>
        <time>2014-03-12T15:14:30Z</time>
      </trkpt>
      <trkpt lat="43.415537" lon="1.310514">
        <ele>170.6</ele>
        <time>2014-03-12T15:14:41Z</time>
      </trkpt>
      <trkpt lat="43.415641" lon="1.310572">
        <ele>170.2</ele>
        <time>2014-03-12T15:14:51Z</time>
      </trkpt>
      <trkpt lat="43.415741" lon="1.310645">
        <ele>170.1</ele>
        <time>2014-03-12T15:15:02Z</time>
      </trkpt>
      <trkpt lat="43.415842" lon="1.310726">
        <ele>169.7</ele>
        <time>2014-03-12T15:15:13Z</time>
      </trkpt>
      <trkpt lat="43.415939" lon="1.310790">
        <ele>169.6</ele>
        <time>2014-03-12T15:15:23Z</time>
      </trkpt>
      <trkpt lat="43.415999" lon="1.310891">
        <ele>169.4</ele>
        <time>2014-03-12T15:15:33Z</time>
      </trkpt>
      <trkpt lat="43.416079" lon="1.310985">
        <ele>170.2</ele>
        <time>2014-03-12T15:15:45Z</time>
      </trkpt>
      <trkpt lat="43.416204" lon="1.311092">
        <ele>170.4</ele>
        <time>2014-03-12T15:15:55Z</time>
      </trkpt>
      <trkpt lat="43.416313" lon="1.311190">
        <ele>170.5</ele>
        <time>2014-03-12T15:16:06Z</time>
      </trkpt>
      <trkpt lat="43.416422" lon="1.311290">
        <ele>169.9</ele>
        <time>2014-03-12T15:16:16Z</time>
      </trkpt>
      <trkpt lat="43.416524" lon="1.311369">
        <ele>169.4</ele>
        <time>2014-03-12T15:16:25Z</time>
      </trkpt>
      <trkpt lat="43.416619" lon="1.311416">
        <ele>169.8</ele>
        <time>2014-03-12T15:16:34Z</time>
      </trkpt>
      <trkpt lat="43.416736" lon="1.311505">
        <ele>170.1</ele>
        <time>2014-03-12T15:16:47Z</time>
      </trkpt>
      <trkpt lat="43.416832" lon="1.311558">
        <ele>170.2</ele>
        <time>2014-03-12T15:16:55Z</time>
      </trkpt>
      <trkpt lat="43.416922" lon="1.311635">
        <ele>169.2</ele>
        <time>2014-03-12T15:17:05Z</time>
      </trkpt>
      <trkpt lat="43.417012" lon="1.311706">
        <ele>169.9</ele>
        <time>2014-03-12T15:17:14Z</time>
      </trkpt>
      <trkpt lat="43.417102" lon="1.311769">
        <ele>170.2</ele>
        <time>2014-03-12T15:17:23Z</time>
      </trkpt>
      <trkpt lat="43.417215" lon="1.311822">
        <ele>170.2</ele>
        <time>2014-03-12T15:17:33Z</time>
      </trkpt>
      <trkpt lat="43.417312" lon="1.311889">
        <ele>170.4</ele>
        <time>2014-03-12T15:17:43Z</time>
      </trkpt>
      <trkpt lat="43.417433" lon="1.311957">
        <ele>170.2</ele>
        <time>2014-03-12T15:17:52Z</time>
      </trkpt>
      <trkpt lat="43.417525" lon="1.312029">
        <ele>170.2</ele>
        <time>2014-03-12T15:18:00Z</time>
      </trkpt>
      <trkpt lat="43.417611" lon="1.312094">
        <ele>170.4</ele>
        <time>2014-03-12T15:18:08Z</time>
      </trkpt>
      <trkpt lat="43.417701" lon="1.312163">
        <ele>170.6</ele>
        <time>2014-03-12T15:18:17Z</time>
      </trkpt>
      <trkpt lat="43.417794" lon="1.312236">
        <ele>170.8</ele>
        <time>2014-03-12T15:18:27Z</time>
      </trkpt>
      <trkpt lat="43.417875" lon="1.312317">
        <ele>170.6</ele>
        <time>2014-03-12T15:18:40Z</time>
      </trkpt>
      <trkpt lat="43.417973" lon="1.312419">
        <ele>170.8</ele>
        <time>2014-03-12T15:18:51Z</time>
      </trkpt>
      <trkpt lat="43.418048" lon="1.312499">
        <ele>171.1</ele>
        <time>2014-03-12T15:19:00Z</time>
      </trkpt>
      <trkpt lat="43.418134" lon="1.312585">
        <ele>171.1</ele>
        <time>2014-03-12T15:19:10Z</time>
      </trkpt>
      <trkpt lat="43.418226" lon="1.312667">
        <ele>171.2</ele>
        <time>2014-03-12T15:19:19Z</time>
      </trkpt>
      <trkpt lat="43.418299" lon="1.312775">
        <ele>171.3</ele>
        <time>2014-03-12T15:19:29Z</time>
      </trkpt>
      <trkpt lat="43.418331" lon="1.312899">
        <ele>170.8</ele>
        <time>2014-03-12T15:19:37Z</time>
      </trkpt>
      <trkpt lat="43.418298" lon="1.313040">
        <ele>170.4</ele>
        <time>2014-03-12T15:19:46Z</time>
      </trkpt>
      <trkpt lat="43.418267" lon="1.313207">
        <ele>170.0</ele>
        <time>2014-03-12T15:19:56Z</time>
      </trkpt>
      <trkpt lat="43.418239" lon="1.313327">
        <ele>170.2</ele>
        <time>2014-03-12T15:20:05Z</time>
      </trkpt>
      <trkpt lat="43.418209" lon="1.313458">
        <ele>170.7</ele>
        <time>2014-03-12T15:20:14Z</time>
      </trkpt>
      <trkpt lat="43.418185" lon="1.313581">
        <ele>170.5</ele>
        <time>2014-03-12T15:20:23Z</time>
      </trkpt>
      <trkpt lat="43.418171" lon="1.313721">
        <ele>170.2</ele>
        <time>2014-03-12T15:20:35Z</time>
      </trkpt>
      <trkpt lat="43.418149" lon="1.313871">
        <ele>170.3</ele>
        <time>2014-03-12T15:20:45Z</time>
      </trkpt>
      <trkpt lat="43.418130" lon="1.314004">
        <ele>170.8</ele>
        <time>2014-03-12T15:20:53Z</time>
      </trkpt>
      <trkpt lat="43.418110" lon="1.314129">
        <ele>171.0</ele>
        <time>2014-03-12T15:21:02Z</time>
      </trkpt>
      <trkpt lat="43.418090" lon="1.314269">
        <ele>171.8</ele>
        <time>2014-03-12T15:21:12Z</time>
      </trkpt>
      <trkpt lat="43.418053" lon="1.314410">
        <ele>172.1</ele>
        <time>2014-03-12T15:21:21Z</time>
      </trkpt>
      <trkpt lat="43.418025" lon="1.314547">
        <ele>171.8</ele>
        <time>2014-03-12T15:21:30Z</time>
      </trkpt>
      <trkpt lat="43.417998" lon="1.314681">
        <ele>172.2</ele>
        <time>2014-03-12T15:21:39Z</time>
      </trkpt>
      <trkpt lat="43.417993" lon="1.314812">
        <ele>172.8</ele>
        <time>2014-03-12T15:21:48Z</time>
        <name>Route D56</name>
      </trkpt>
      <trkpt lat="43.418048" lon="1.314894">
        <ele>173.4</ele>
        <time>2014-03-12T15:21:57Z</time>
      </trkpt>
      <trkpt lat="43.418146" lon="1.314945">
        <ele>172.6</ele>
        <time>2014-03-12T15:22:05Z</time>
      </trkpt>
      <trkpt lat="43.418233" lon="1.314996">
        <ele>172.2</ele>
        <time>2014-03-12T15:22:13Z</time>
      </trkpt>
      <trkpt lat="43.418328" lon="1.315046">
        <ele>172.3</ele>
        <time>2014-03-12T15:22:21Z</time>
      </trkpt>
      <trkpt lat="43.418412" lon="1.315107">
        <ele>172.5</ele>
        <time>2014-03-12T15:22:30Z</time>
      </trkpt>
      <trkpt lat="43.418497" lon="1.315154">
        <ele>173.1</ele>
        <time>2014-03-12T15:22:39Z</time>
      </trkpt>
      <trkpt lat="43.418589" lon="1.315227">
        <ele>173.1</ele>
        <time>2014-03-12T15:22:48Z</time>
      </trkpt>
      <trkpt lat="43.418689" lon="1.315292">
        <ele>172.2</ele>
        <time>2014-03-12T15:22:58Z</time>
      </trkpt>
      <trkpt lat="43.418773" lon="1.315341">
        <ele>171.8</ele>
        <time>2014-03-12T15:23:05Z</time>
      </trkpt>
      <trkpt lat="43.418865" lon="1.315388">
        <ele>171.8</ele>
        <time>2014-03-12T15:23:14Z</time>
      </trkpt>
      <trkpt lat="43.418937" lon="1.315447">
        <ele>171.6</ele>
        <time>2014-03-12T15:23:22Z</time>
      </trkpt>
      <trkpt lat="43.419022" lon="1.315484">
        <ele>171.3</ele>
        <time>2014-03-12T15:23:29Z</time>
      </trkpt>
      <trkpt lat="43.419108" lon="1.315547">
        <ele>171.1</ele>
        <time>2014-03-12T15:23:37Z</time>
      </trkpt>
      <trkpt lat="43.419203" lon="1.315594">
        <ele>171.0</ele>
        <time>2014-03-12T15:23:44Z</time>
      </trkpt>
      <trkpt lat="43.419280" lon="1.315645">
        <ele>171.1</ele>
        <time>2014-03-12T15:23:51Z</time>
      </trkpt>
      <trkpt lat="43.419354" lon="1.315697">
        <ele>171.4</ele>
        <time>2014-03-12T15:24:00Z</time>
      </trkpt>
      <trkpt lat="43.419444" lon="1.315744">
        <ele>170.9</ele>
        <time>2014-03-12T15:24:09Z</time>
      </trkpt>
      <trkpt lat="43.419537" lon="1.315806">
        <ele>170.6</ele>
        <time>2014-03-12T15:24:18Z</time>
      </trkpt>
      <trkpt lat="43.419642" lon="1.315886">
        <ele>170.9</ele>
        <time>2014-03-12T15:24:27Z</time>
      </trkpt>
      <trkpt lat="43.419742" lon="1.315950">
        <ele>170.9</ele>
        <time>2014-03-12T15:24:35Z</time>
      </trkpt>
      <trkpt lat="43.419825" lon="1.315906">
        <ele>170.4</ele>
        <time>2014-03-12T15:24:45Z</time>
      </trkpt>
      <trkpt lat="43.419886" lon="1.315790">
        <ele>169.9</ele>
        <time>2014-03-12T15:24:54Z</time>
      </trkpt>
      <trkpt lat="43.419937" lon="1.315676">
        <ele>169.8</ele>
        <time>2014-03-12T15:25:02Z</time>
      </trkpt>
      <trkpt lat="43.419975" lon="1.315556">
        <ele>169.6</ele>
        <time>2014-03-12T15:25:10Z</time>
      </trkpt>
      <trkpt lat="43.420023" lon="1.315448">
        <ele>169.6</ele>
        <time>2014-03-12T15:25:18Z</time>
      </trkpt>
      <trkpt lat="43.420076" lon="1.315305">
        <ele>169.5</ele>
        <time>2014-03-12T15:25:28Z</time>
      </trkpt>
      <trkpt lat="43.420123" lon="1.315166">
        <ele>169.4</ele>
        <time>2014-03-12T15:25:38Z</time>
      </trkpt>
      <trkpt lat="43.420173" lon="1.315037">
        <ele>169.1</ele>
        <time>2014-03-12T15:25:46Z</time>
      </trkpt>
      <trkpt lat="43.420218" lon="1.314903">
        <ele>169.0</ele>
        <time>2014-03-12T15:25:55Z</time>
      </trkpt>
      <trkpt lat="43.420259" lon="1.314772">
        <ele>168.7</ele>
        <time>2014-03-12T15:26:03Z</time>
      </trkpt>
      <trkpt lat="43.420316" lon="1.314650">
        <ele>168.8</ele>
        <time>2014-03-12T15:26:12Z</time>
      </trkpt>
      <trkpt lat="43.420406" lon="1.314584">
        <ele>169.4</ele>
        <time>2014-03-12T15:26:20Z</time>
      </trkpt>
      <trkpt lat="43.420531" lon="1.314642">
        <ele>169.4</ele>
        <time>2014-03-12T15:26:28Z</time>
      </trkpt>
      <trkpt lat="43.420641" lon="1.314707">
        <ele>169.5</ele>
        <time>2014-03-12T15:26:36Z</time>
      </trkpt>
      <trkpt lat="43.420740" lon="1.314756">
        <ele>169.3</ele>
        <time>2014-03-12T15:26:45Z</time>
      </trkpt>
      <trkpt lat="43.420837" lon="1.314807">
        <ele>169.6</ele>
        <time>2014-03-12T15:26:54Z</time>
      </trkpt>
      <trkpt lat="43.420931" lon="1.314867">
        <ele>170.2</ele>
        <time>2014-03-12T15:27:04Z</time>
      </trkpt>
      <trkpt lat="43.420989" lon="1.314810">
        <ele>170.1</ele>
        <time>2014-03-12T15:27:16Z</time>
      </trkpt>
      <trkpt lat="43.421039" lon="1.314690">
        <ele>169.4</ele>
        <time>2014-03-12T15:27:28Z</time>
      </trkpt>
      <trkpt lat="43.421100" lon="1.314518">
        <ele>169.1</ele>
        <time>2014-03-12T15:27:41Z</time>
      </trkpt>
      <trkpt lat="43.421212" lon="1.314562">
        <ele>169.0</ele>
        <time>2014-03-12T15:27:54Z</time>
      </trkpt>
      <trkpt lat="43.421317" lon="1.314613">
        <ele>168.9</ele>
        <time>2014-03-12T15:28:04Z</time>
      </trkpt>
      <trkpt lat="43.421422" lon="1.314634">
        <ele>169.0</ele>
        <time>2014-03-12T15:28:13Z</time>
      </trkpt>
      <trkpt lat="43.421520" lon="1.314665">
        <ele>169.3</ele>
        <time>2014-03-12T15:28:22Z</time>
      </trkpt>
      <trkpt lat="43.421609" lon="1.314720">
        <ele>169.1</ele>
        <time>2014-03-12T15:28:31Z</time>
      </trkpt>
      <trkpt lat="43.421710" lon="1.314765">
        <ele>168.7</ele>
        <time>2014-03-12T15:28:40Z</time>
      </trkpt>
      <trkpt lat="43.421797" lon="1.314811">
        <ele>168.7</ele>
        <time>2014-03-12T15:28:48Z</time>
      </trkpt>
      <trkpt lat="43.421890" lon="1.314871">
        <ele>168.6</ele>
        <time>2014-03-12T15:28:59Z</time>
      </trkpt>
      <trkpt lat="43.421993" lon="1.314965">
        <ele>168.4</ele>
        <time>2014-03-12T15:29:11Z</time>
      </trkpt>
      <trkpt lat="43.422083" lon="1.315044">
        <ele>168.3</ele>
        <time>2014-03-12T15:29:21Z</time>
      </trkpt>
      <trkpt lat="43.422199" lon="1.315111">
        <ele>168.6</ele>
        <time>2014-03-12T15:29:33Z</time>
      </trkpt>
      <trkpt lat="43.422306" lon="1.315196">
        <ele>168.0</ele>
        <time>2014-03-12T15:29:44Z</time>
      </trkpt>
      <trkpt lat="43.422397" lon="1.315288">
        <ele>168.2</ele>
        <time>2014-03-12T15:29:57Z</time>
      </trkpt>
      <trkpt lat="43.422503" lon="1.315380">
        <ele>168.3</ele>
        <time>2014-03-12T15:30:08Z</time>
      </trkpt>
      <trkpt lat="43.422608" lon="1.315465">
        <ele>168.3</ele>
        <time>2014-03-12T15:30:18Z</time>
      </trkpt>
      <trkpt lat="43.422717" lon="1.315553">
        <ele>168.4</ele>
        <time>2014-03-12T15:30:28Z</time>
      </trkpt>
      <trkpt lat="43.422815" lon="1.315640">
        <ele>168.1</ele>
        <time>2014-03-12T15:30:39Z</time>
      </trkpt>
      <trkpt lat="43.422915" lon="1.315738">
        <ele>168.3</ele>
        <time>2014-03-12T15:30:48Z</time>
      </trkpt>
      <trkpt lat="43.423016" lon="1.315816">
        <ele>167.9</ele>
        <time>2014-03-12T15:30:57Z</time>
      </trkpt>
      <trkpt lat="43.423095" lon="1.315904">
        <ele>167.9</ele>
        <time>2014-03-12T15:31:06Z</time>
      </trkpt>
      <trkpt lat="43.423192" lon="1.315936">
        <ele>168.1</ele>
        <time>2014-03-12T15:31:15Z</time>
      </trkpt>
      <trkpt lat="43.423299" lon="1.315962">
        <ele>165.8</ele>
        <time>2014-03-12T15:31:28Z</time>
      </trkpt>
      <trkpt lat="43.423411" lon="1.315976">
        <ele>162.8</ele>
        <time>2014-03-12T15:31:44Z</time>
      </trkpt>
      <trkpt lat="43.423538" lon="1.315986">
        <ele>159.7</ele>
        <time>2014-03-12T15:31:57Z</time>
      </trkpt>
      <trkpt lat="43.423670" lon="1.316017">
        <ele>158.3</ele>
        <time>2014-03-12T15:32:08Z</time>
      </trkpt>
      <trkpt lat="43.423781" lon="1.316065">
        <ele>158.2</ele>
        <time>2014-03-12T15:32:20Z</time>
      </trkpt>
      <trkpt lat="43.423900" lon="1.316156">
        <ele>158.1</ele>
        <time>2014-03-12T15:32:32Z</time>
      </trkpt>
      <trkpt lat="43.423982" lon="1.316258">
        <ele>157.8</ele>
        <time>2014-03-12T15:32:45Z</time>
      </trkpt>
      <trkpt lat="43.424083" lon="1.316329">
        <ele>158.1</ele>
        <time>2014-03-12T15:32:56Z</time>
      </trkpt>
      <trkpt lat="43.424204" lon="1.316376">
        <ele>158.3</ele>
        <time>2014-03-12T15:33:07Z</time>
      </trkpt>
      <trkpt lat="43.424322" lon="1.316450">
        <ele>158.3</ele>
        <time>2014-03-12T15:33:20Z</time>
      </trkpt>
      <trkpt lat="43.424466" lon="1.316521">
        <ele>158.7</ele>
        <time>2014-03-12T15:33:31Z</time>
      </trkpt>
      <trkpt lat="43.424564" lon="1.316590">
        <ele>158.5</ele>
        <time>2014-03-12T15:33:40Z</time>
      </trkpt>
      <trkpt lat="43.424675" lon="1.316690">
        <ele>158.0</ele>
        <time>2014-03-12T15:33:53Z</time>
      </trkpt>
      <trkpt lat="43.424796" lon="1.316764">
        <ele>157.8</ele>
        <time>2014-03-12T15:34:02Z</time>
      </trkpt>
      <trkpt lat="43.424886" lon="1.316847">
        <ele>157.5</ele>
        <time>2014-03-12T15:34:12Z</time>
      </trkpt>
      <trkpt lat="43.424973" lon="1.316920">
        <ele>157.0</ele>
        <time>2014-03-12T15:34:22Z</time>
      </trkpt>
      <trkpt lat="43.425080" lon="1.317010">
        <ele>156.9</ele>
        <time>2014-03-12T15:34:34Z</time>
      </trkpt>
      <trkpt lat="43.425191" lon="1.317093">
        <ele>156.8</ele>
        <time>2014-03-12T15:34:45Z</time>
      </trkpt>
      <trkpt lat="43.425292" lon="1.317162">
        <ele>156.7</ele>
        <time>2014-03-12T15:34:55Z</time>
      </trkpt>
      <trkpt lat="43.425412" lon="1.317253">
        <ele>156.8</ele>
        <time>2014-03-12T15:35:05Z</time>
      </trkpt>
      <trkpt lat="43.425503" lon="1.317333">
        <ele>156.5</ele>
        <time>2014-03-12T15:35:15Z</time>
      </trkpt>
      <trkpt lat="43.425592" lon="1.317421">
        <ele>156.9</ele>
        <time>2014-03-12T15:35:26Z</time>
      </trkpt>
      <trkpt lat="43.425708" lon="1.317527">
        <ele>156.2</ele>
        <time>2014-03-12T15:35:37Z</time>
      </trkpt>
      <trkpt lat="43.425797" lon="1.317593">
        <ele>156.2</ele>
        <time>2014-03-12T15:35:47Z</time>
      </trkpt>
      <trkpt lat="43.425876" lon="1.317670">
        <ele>156.1</ele>
        <time>2014-03-12T15:35:58Z</time>
      </trkpt>
      <trkpt lat="43.425994" lon="1.317731">
        <ele>156.1</ele>
        <time>2014-03-12T15:36:08Z</time>
      </trkpt>
      <trkpt lat="43.426095" lon="1.317767">
        <ele>155.6</ele>
        <time>2014-03-12T15:36:20Z</time>
      </trkpt>
      <trkpt lat="43.426178" lon="1.317808">
        <ele>155.3</ele>
        <time>2014-03-12T15:36:31Z</time>
      </trkpt>
      <trkpt lat="43.426301" lon="1.317900">
        <ele>155.2</ele>
        <time>2014-03-12T15:36:44Z</time>
      </trkpt>
      <trkpt lat="43.426395" lon="1.317997">
        <ele>156.0</ele>
        <time>2014-03-12T15:36:56Z</time>
      </trkpt>
      <trkpt lat="43.426470" lon="1.318102">
        <ele>156.4</ele>
        <time>2014-03-12T15:37:06Z</time>
      </trkpt>
      <trkpt lat="43.426561" lon="1.318193">
        <ele>156.3</ele>
        <time>2014-03-12T15:37:16Z</time>
      </trkpt>
      <trkpt lat="43.426639" lon="1.318256">
        <ele>156.5</ele>
        <time>2014-03-12T15:37:24Z</time>
      </trkpt>
      <trkpt lat="43.426716" lon="1.318324">
        <ele>156.7</ele>
        <time>2014-03-12T15:37:33Z</time>
      </trkpt>
      <trkpt lat="43.426793" lon="1.318410">
        <ele>156.7</ele>
        <time>2014-03-12T15:37:43Z</time>
      </trkpt>
      <trkpt lat="43.426882" lon="1.318504">
        <ele>156.7</ele>
        <time>2014-03-12T15:37:53Z</time>
      </trkpt>
      <trkpt lat="43.426967" lon="1.318590">
        <ele>156.7</ele>
        <time>2014-03-12T15:38:02Z</time>
      </trkpt>
      <trkpt lat="43.427047" lon="1.318668">
        <ele>156.6</ele>
        <time>2014-03-12T15:38:11Z</time>
      </trkpt>
      <trkpt lat="43.427133" lon="1.318726">
        <ele>156.5</ele>
        <time>2014-03-12T15:38:21Z</time>
      </trkpt>
      <trkpt lat="43.427219" lon="1.318806">
        <ele>156.4</ele>
        <time>2014-03-12T15:38:32Z</time>
      </trkpt>
      <trkpt lat="43.427307" lon="1.318900">
        <ele>156.3</ele>
        <time>2014-03-12T15:38:43Z</time>
      </trkpt>
      <trkpt lat="43.427396" lon="1.318965">
        <ele>156.7</ele>
        <time>2014-03-12T15:38:53Z</time>
      </trkpt>
      <trkpt lat="43.427486" lon="1.319042">
        <ele>156.7</ele>
        <time>2014-03-12T15:39:03Z</time>
      </trkpt>
      <trkpt lat="43.427578" lon="1.319122">
        <ele>156.5</ele>
        <time>2014-03-12T15:39:14Z</time>
      </trkpt>
      <trkpt lat="43.427656" lon="1.319201">
        <ele>156.3</ele>
        <time>2014-03-12T15:39:27Z</time>
      </trkpt>
      <trkpt lat="43.427716" lon="1.319299">
        <ele>156.5</ele>
        <time>2014-03-12T15:39:38Z</time>
      </trkpt>
      <trkpt lat="43.427797" lon="1.319397">
        <ele>156.3</ele>
        <time>2014-03-12T15:39:49Z</time>
      </trkpt>
      <trkpt lat="43.427887" lon="1.319471">
        <ele>156.4</ele>
        <time>2014-03-12T15:40:01Z</time>
      </trkpt>
      <trkpt lat="43.427961" lon="1.319562">
        <ele>156.9</ele>
        <time>2014-03-12T15:40:11Z</time>
      </trkpt>
      <trkpt lat="43.428090" lon="1.319660">
        <ele>157.4</ele>
        <time>2014-03-12T15:40:21Z</time>
      </trkpt>
      <trkpt lat="43.428167" lon="1.319747">
        <ele>157.0</ele>
        <time>2014-03-12T15:40:32Z</time>
      </trkpt>
      <trkpt lat="43.428253" lon="1.319850">
        <ele>155.9</ele>
        <time>2014-03-12T15:40:43Z</time>
      </trkpt>
      <trkpt lat="43.428344" lon="1.319936">
        <ele>156.0</ele>
        <time>2014-03-12T15:40:53Z</time>
      </trkpt>
      <trkpt lat="43.428428" lon="1.320007">
        <ele>155.9</ele>
        <time>2014-03-12T15:41:03Z</time>
      </trkpt>
      <trkpt lat="43.428515" lon="1.320094">
        <ele>155.8</ele>
        <time>2014-03-12T15:41:14Z</time>
      </trkpt>
      <trkpt lat="43.428597" lon="1.320187">
        <ele>156.0</ele>
        <time>2014-03-12T15:41:23Z</time>
      </trkpt>
      <trkpt lat="43.428671" lon="1.320279">
        <ele>156.6</ele>
        <time>2014-03-12T15:41:34Z</time>
      </trkpt>
      <trkpt lat="43.428752" lon="1.320351">
        <ele>156.2</ele>
        <time>2014-03-12T15:41:45Z</time>
      </trkpt>
      <trkpt lat="43.428771" lon="1.320469">
        <ele>156.0</ele>
        <time>2014-03-12T15:41:55Z</time>
      </trkpt>
      <trkpt lat="43.428693" lon="1.320576">
        <ele>157.2</ele>
        <time>2014-03-12T15:42:06Z</time>
      </trkpt>
      <trkpt lat="43.428646" lon="1.320712">
        <ele>157.9</ele>
        <time>2014-03-12T15:42:16Z</time>
      </trkpt>
      <trkpt lat="43.428584" lon="1.320835">
        <ele>159.4</ele>
        <time>2014-03-12T15:42:27Z</time>
      </trkpt>
      <trkpt lat="43.428507" lon="1.320950">
        <ele>160.7</ele>
        <time>2014-03-12T15:42:37Z</time>
      </trkpt>
      <trkpt lat="43.428440" lon="1.321067">
        <ele>160.8</ele>
        <time>2014-03-12T15:42:46Z</time>
      </trkpt>
      <trkpt lat="43.428376" lon="1.321164">
        <ele>161.1</ele>
        <time>2014-03-12T15:42:55Z</time>
      </trkpt>
      <trkpt lat="43.428313" lon="1.321268">
        <ele>161.4</ele>
        <time>2014-03-12T15:43:05Z</time>
      </trkpt>
      <trkpt lat="43.428257" lon="1.321383">
        <ele>162.0</ele>
        <time>2014-03-12T15:43:14Z</time>
      </trkpt>
      <trkpt lat="43.428191" lon="1.321490">
        <ele>162.4</ele>
        <time>2014-03-12T15:43:23Z</time>
      </trkpt>
      <trkpt lat="43.428129" lon="1.321596">
        <ele>162.5</ele>
        <time>2014-03-12T15:43:32Z</time>
      </trkpt>
      <trkpt lat="43.428062" lon="1.321699">
        <ele>162.6</ele>
        <time>2014-03-12T15:43:41Z</time>
      </trkpt>
      <trkpt lat="43.427996" lon="1.321809">
        <ele>162.8</ele>
        <time>2014-03-12T15:43:50Z</time>
      </trkpt>
      <trkpt lat="43.427923" lon="1.321921">
        <ele>163.0</ele>
        <time>2014-03-12T15:43:59Z</time>
      </trkpt>
      <trkpt lat="43.427870" lon="1.322026">
        <ele>163.5</ele>
        <time>2014-03-12T15:44:08Z</time>
      </trkpt>
      <trkpt lat="43.427822" lon="1.322133">
        <ele>164.5</ele>
        <time>2014-03-12T15:44:17Z</time>
      </trkpt>
      <trkpt lat="43.427761" lon="1.322231">
        <ele>165.4</ele>
        <time>2014-03-12T15:44:29Z</time>
      </trkpt>
      <trkpt lat="43.427704" lon="1.322327">
        <ele>166.5</ele>
        <time>2014-03-12T15:44:41Z</time>
      </trkpt>
      <trkpt lat="43.427666" lon="1.322458">
        <ele>168.9</ele>
        <time>2014-03-12T15:44:54Z</time>
      </trkpt>
      <trkpt lat="43.427621" lon="1.322558">
        <ele>170.3</ele>
        <time>2014-03-12T15:45:06Z</time>
      </trkpt>
      <trkpt lat="43.427545" lon="1.322667">
        <ele>171.3</ele>
        <time>2014-03-12T15:45:19Z</time>
      </trkpt>
      <trkpt lat="43.427465" lon="1.322817">
        <ele>173.2</ele>
        <time>2014-03-12T15:45:32Z</time>
      </trkpt>
      <trkpt lat="43.427379" lon="1.322947">
        <ele>175.0</ele>
        <time>2014-03-12T15:45:46Z</time>
      </trkpt>
      <trkpt lat="43.427320" lon="1.323057">
        <ele>177.1</ele>
        <time>2014-03-12T15:46:02Z</time>
      </trkpt>
      <trkpt lat="43.427214" lon="1.323169">
        <ele>178.5</ele>
        <time>2014-03-12T15:46:17Z</time>
      </trkpt>
      <trkpt lat="43.427121" lon="1.323288">
        <ele>180.4</ele>
        <time>2014-03-12T15:46:31Z</time>
      </trkpt>
      <trkpt lat="43.427019" lon="1.323383">
        <ele>182.2</ele>
        <time>2014-03-12T15:46:45Z</time>
      </trkpt>
      <trkpt lat="43.426897" lon="1.323466">
        <ele>184.0</ele>
        <time>2014-03-12T15:47:00Z</time>
      </trkpt>
      <trkpt lat="43.426828" lon="1.323467">
        <ele>186.8</ele>
        <time>2014-03-12T15:47:20Z</time>
      </trkpt>
      <trkpt lat="43.426797" lon="1.323475">
        <ele>186.3</ele>
        <time>2014-03-12T15:47:58Z</time>
      </trkpt>
      <trkpt lat="43.426865" lon="1.323517">
        <ele>186.9</ele>
        <time>2014-03-12T15:48:26Z</time>
      </trkpt>
      <trkpt lat="43.426856" lon="1.323504">
        <ele>187.1</ele>
        <time>2014-03-12T15:49:07Z</time>
      </trkpt>
      <trkpt lat="43.426862" lon="1.323527">
        <ele>187.1</ele>
        <time>2014-03-12T15:49:35Z</time>
      </trkpt>
      <trkpt lat="43.426775" lon="1.323604">
        <ele>188.6</ele>
        <time>2014-03-12T15:50:02Z</time>
      </trkpt>
      <trkpt lat="43.426671" lon="1.323743">
        <ele>191.2</ele>
        <time>2014-03-12T15:50:21Z</time>
      </trkpt>
      <trkpt lat="43.426595" lon="1.323839">
        <ele>193.1</ele>
        <time>2014-03-12T15:50:35Z</time>
      </trkpt>
      <trkpt lat="43.426534" lon="1.323969">
        <ele>196.4</ele>
        <time>2014-03-12T15:50:52Z</time>
      </trkpt>
      <trkpt lat="43.426457" lon="1.324114">
        <ele>199.1</ele>
        <time>2014-03-12T15:51:12Z</time>
      </trkpt>
      <trkpt lat="43.426397" lon="1.324262">
        <ele>202.0</ele>
        <time>2014-03-12T15:51:32Z</time>
      </trkpt>
      <trkpt lat="43.426299" lon="1.324368">
        <ele>204.2</ele>
        <time>2014-03-12T15:51:49Z</time>
      </trkpt>
      <trkpt lat="43.426198" lon="1.324433">
        <ele>206.6</ele>
        <time>2014-03-12T15:52:08Z</time>
      </trkpt>
      <trkpt lat="43.426127" lon="1.324539">
        <ele>209.4</ele>
        <time>2014-03-12T15:52:24Z</time>
      </trkpt>
      <trkpt lat="43.426059" lon="1.324784">
        <ele>211.3</ele>
        <time>2014-03-12T15:52:42Z</time>
      </trkpt>
      <trkpt lat="43.426025" lon="1.324969">
        <ele>213.8</ele>
        <time>2014-03-12T15:53:01Z</time>
      </trkpt>
      <trkpt lat="43.425973" lon="1.325155">
        <ele>217.3</ele>
        <time>2014-03-12T15:53:20Z</time>
      </trkpt>
      <trkpt lat="43.425921" lon="1.325358">
        <ele>219.7</ele>
        <time>2014-03-12T15:53:40Z</time>
      </trkpt>
      <trkpt lat="43.425837" lon="1.325499">
        <ele>222.0</ele>
        <time>2014-03-12T15:53:56Z</time>
      </trkpt>
      <trkpt lat="43.425767" lon="1.325623">
        <ele>224.0</ele>
        <time>2014-03-12T15:54:13Z</time>
      </trkpt>
      <trkpt lat="43.425714" lon="1.325790">
        <ele>226.0</ele>
        <time>2014-03-12T15:54:32Z</time>
      </trkpt>
      <trkpt lat="43.425658" lon="1.325887">
        <ele>227.8</ele>
        <time>2014-03-12T15:54:45Z</time>
      </trkpt>
      <trkpt lat="43.425573" lon="1.325890">
        <ele>229.0</ele>
        <time>2014-03-12T15:54:59Z</time>
      </trkpt>
      <trkpt lat="43.425493" lon="1.325772">
        <ele>229.9</ele>
        <time>2014-03-12T15:55:16Z</time>
      </trkpt>
      <trkpt lat="43.425378" lon="1.325632">
        <ele>231.6</ele>
        <time>2014-03-12T15:55:35Z</time>
      </trkpt>
      <trkpt lat="43.425256" lon="1.325573">
        <ele>234.1</ele>
        <time>2014-03-12T15:55:51Z</time>
      </trkpt>
      <trkpt lat="43.425170" lon="1.325668">
        <ele>236.1</ele>
        <time>2014-03-12T15:56:08Z</time>
      </trkpt>
      <trkpt lat="43.425148" lon="1.325825">
        <ele>238.1</ele>
        <time>2014-03-12T15:56:28Z</time>
      </trkpt>
      <trkpt lat="43.425074" lon="1.325977">
        <ele>240.6</ele>
        <time>2014-03-12T15:56:50Z</time>
      </trkpt>
      <trkpt lat="43.425020" lon="1.325999">
        <ele>240.6</ele>
        <time>2014-03-12T15:57:24Z</time>
      </trkpt>
      <trkpt lat="43.424990" lon="1.326092">
        <ele>241.3</ele>
        <time>2014-03-12T15:57:43Z</time>
      </trkpt>
      <trkpt lat="43.424998" lon="1.326125">
        <ele>245.6</ele>
        <time>2014-03-12T15:58:12Z</time>
      </trkpt>
      <trkpt lat="43.424990" lon="1.326027">
        <ele>245.4</ele>
        <time>2014-03-12T15:58:35Z</time>
      </trkpt>
      <trkpt lat="43.424911" lon="1.326092">
        <ele>246.9</ele>
        <time>2014-03-12T15:59:16Z</time>
      </trkpt>
      <trkpt lat="43.424854" lon="1.326197">
        <ele>248.8</ele>
        <time>2014-03-12T15:59:31Z</time>
      </trkpt>
      <trkpt lat="43.424791" lon="1.326306">
        <ele>252.6</ele>
        <time>2014-03-12T16:00:02Z</time>
      </trkpt>
      <trkpt lat="43.424725" lon="1.326407">
        <ele>256.3</ele>
        <time>2014-03-12T16:00:24Z</time>
      </trkpt>
      <trkpt lat="43.424679" lon="1.326515">
        <ele>259.3</ele>
        <time>2014-03-12T16:00:45Z</time>
      </trkpt>
      <trkpt lat="43.424596" lon="1.326566">
        <ele>263.2</ele>
        <time>2014-03-12T16:01:06Z</time>
      </trkpt>
      <trkpt lat="43.424535" lon="1.326540">
        <ele>264.0</ele>
        <time>2014-03-12T16:01:34Z</time>
      </trkpt>
      <trkpt lat="43.424461" lon="1.326488">
        <ele>264.4</ele>
        <time>2014-03-12T16:01:59Z</time>
      </trkpt>
      <trkpt lat="43.424336" lon="1.326341">
        <ele>266.5</ele>
        <time>2014-03-12T16:02:20Z</time>
      </trkpt>
      <trkpt lat="43.424215" lon="1.326270">
        <ele>267.5</ele>
        <time>2014-03-12T16:02:39Z</time>
      </trkpt>
      <trkpt lat="43.424114" lon="1.326161">
        <ele>268.4</ele>
        <time>2014-03-12T16:02:57Z</time>
      </trkpt>
      <trkpt lat="43.423984" lon="1.326011">
        <ele>271.0</ele>
        <time>2014-03-12T16:03:20Z</time>
      </trkpt>
      <trkpt lat="43.423889" lon="1.325913">
        <ele>274.2</ele>
        <time>2014-03-12T16:03:43Z</time>
      </trkpt>
      <trkpt lat="43.423784" lon="1.325857">
        <ele>277.0</ele>
        <time>2014-03-12T16:04:06Z</time>
      </trkpt>
      <trkpt lat="43.423807" lon="1.325841">
        <ele>277.0</ele>
        <time>2014-03-12T16:04:56Z</time>
      </trkpt>
      <trkpt lat="43.423782" lon="1.325885">
        <ele>276.1</ele>
        <time>2014-03-12T16:05:40Z</time>
      </trkpt>
      <trkpt lat="43.423791" lon="1.325873">
        <ele>277.5</ele>
        <time>2014-03-12T16:07:55Z</time>
      </trkpt>
      <trkpt lat="43.423734" lon="1.325853">
        <ele>276.9</ele>
        <time>2014-03-12T16:09:50Z</time>
      </trkpt>
      <trkpt lat="43.423637" lon="1.325781">
        <ele>277.2</ele>
        <time>2014-03-12T16:10:05Z</time>
      </trkpt>
      <trkpt lat="43.423620" lon="1.325817">
        <ele>277.2</ele>
        <time>2014-03-12T16:10:33Z</time>
      </trkpt>
      <trkpt lat="43.423552" lon="1.325949">
        <ele>277.1</ele>
        <time>2014-03-12T16:10:49Z</time>
      </trkpt>
      <trkpt lat="43.423456" lon="1.326067">
        <ele>276.5</ele>
        <time>2014-03-12T16:11:04Z</time>
      </trkpt>
      <trkpt lat="43.423388" lon="1.326168">
        <ele>276.3</ele>
        <time>2014-03-12T16:11:21Z</time>
      </trkpt>
      <trkpt lat="43.423313" lon="1.326311">
        <ele>277.0</ele>
        <time>2014-03-12T16:11:35Z</time>
      </trkpt>
      <trkpt lat="43.423208" lon="1.326357">
        <ele>276.3</ele>
        <time>2014-03-12T16:11:53Z</time>
      </trkpt>
      <trkpt lat="43.423084" lon="1.326412">
        <ele>276.4</ele>
        <time>2014-03-12T16:12:09Z</time>
      </trkpt>
      <trkpt lat="43.422993" lon="1.326361">
        <ele>276.3</ele>
        <time>2014-03-12T16:12:26Z</time>
      </trkpt>
      <trkpt lat="43.422921" lon="1.326266">
        <ele>276.2</ele>
        <time>2014-03-12T16:12:38Z</time>
      </trkpt>
      <trkpt lat="43.422849" lon="1.326175">
        <ele>277.0</ele>
        <time>2014-03-12T16:12:49Z</time>
        <name>Reservoirs</name>
      </trkpt>
      <trkpt lat="43.422795" lon="1.326081">
        <ele>277.2</ele>
        <time>2014-03-12T16:13:00Z</time>
      </trkpt>
      <trkpt lat="43.422723" lon="1.325983">
        <ele>277.4</ele>
        <time>2014-03-12T16:13:12Z</time>
      </trkpt>
      <trkpt lat="43.422656" lon="1.325895">
        <ele>277.4</ele>
        <time>2014-03-12T16:13:23Z</time>
      </trkpt>
      <trkpt lat="43.422548" lon="1.325812">
        <ele>277.7</ele>
        <time>2014-03-12T16:13:35Z</time>
      </trkpt>
      <trkpt lat="43.422482" lon="1.325704">
        <ele>277.7</ele>
        <time>2014-03-12T16:13:45Z</time>
      </trkpt>
      <trkpt lat="43.422407" lon="1.325598">
        <ele>278.0</ele>
        <time>2014-03-12T16:13:55Z</time>
      </trkpt>
      <trkpt lat="43.422335" lon="1.325495">
        <ele>278.7</ele>
        <time>2014-03-12T16:14:05Z</time>
      </trkpt>
      <trkpt lat="43.422259" lon="1.325405">
        <ele>278.0</ele>
        <time>2014-03-12T16:14:15Z</time>
      </trkpt>
      <trkpt lat="43.422176" lon="1.325331">
        <ele>278.0</ele>
        <time>2014-03-12T16:14:26Z</time>
      </trkpt>
      <trkpt lat="43.422084" lon="1.325281">
        <ele>278.2</ele>
        <time>2014-03-12T16:14:36Z</time>
      </trkpt>
      <trkpt lat="43.421994" lon="1.325224">
        <ele>278.4</ele>
        <time>2014-03-12T16:14:45Z</time>
      </trkpt>
      <trkpt lat="43.421909" lon="1.325184">
        <ele>277.1</ele>
        <time>2014-03-12T16:14:54Z</time>
      </trkpt>
      <trkpt lat="43.421812" lon="1.325124">
        <ele>276.8</ele>
        <time>2014-03-12T16:15:03Z</time>
      </trkpt>
      <trkpt lat="43.421724" lon="1.325077">
        <ele>277.2</ele>
        <time>2014-03-12T16:15:12Z</time>
      </trkpt>
      <trkpt lat="43.421626" lon="1.325035">
        <ele>277.4</ele>
        <time>2014-03-12T16:15:21Z</time>
      </trkpt>
      <trkpt lat="43.421527" lon="1.324986">
        <ele>277.4</ele>
        <time>2014-03-12T16:15:30Z</time>
      </trkpt>
      <trkpt lat="43.421437" lon="1.324939">
        <ele>277.8</ele>
        <time>2014-03-12T16:15:39Z</time>
      </trkpt>
      <trkpt lat="43.421347" lon="1.324898">
        <ele>277.9</ele>
        <time>2014-03-12T16:15:47Z</time>
      </trkpt>
      <trkpt lat="43.421253" lon="1.324848">
        <ele>278.4</ele>
        <time>2014-03-12T16:15:55Z</time>
      </trkpt>
      <trkpt lat="43.421166" lon="1.324797">
        <ele>278.9</ele>
        <time>2014-03-12T16:16:04Z</time>
      </trkpt>
      <trkpt lat="43.421082" lon="1.324749">
        <ele>279.0</ele>
        <time>2014-03-12T16:16:13Z</time>
      </trkpt>
      <trkpt lat="43.420992" lon="1.324727">
        <ele>278.8</ele>
        <time>2014-03-12T16:16:21Z</time>
      </trkpt>
      <trkpt lat="43.420909" lon="1.324678">
        <ele>278.9</ele>
        <time>2014-03-12T16:16:29Z</time>
      </trkpt>
      <trkpt lat="43.420825" lon="1.324627">
        <ele>278.7</ele>
        <time>2014-03-12T16:16:37Z</time>
      </trkpt>
      <trkpt lat="43.420729" lon="1.324590">
        <ele>278.6</ele>
        <time>2014-03-12T16:16:45Z</time>
      </trkpt>
      <trkpt lat="43.420636" lon="1.324552">
        <ele>278.3</ele>
        <time>2014-03-12T16:16:54Z</time>
      </trkpt>
      <trkpt lat="43.420540" lon="1.324510">
        <ele>278.4</ele>
        <time>2014-03-12T16:17:02Z</time>
      </trkpt>
      <trkpt lat="43.420452" lon="1.324456">
        <ele>279.0</ele>
        <time>2014-03-12T16:17:11Z</time>
      </trkpt>
      <trkpt lat="43.420368" lon="1.324420">
        <ele>279.1</ele>
        <time>2014-03-12T16:17:19Z</time>
      </trkpt>
      <trkpt lat="43.420284" lon="1.324360">
        <ele>279.3</ele>
        <time>2014-03-12T16:17:28Z</time>
      </trkpt>
      <trkpt lat="43.420199" lon="1.324321">
        <ele>279.4</ele>
        <time>2014-03-12T16:17:36Z</time>
      </trkpt>
      <trkpt lat="43.420102" lon="1.324277">
        <ele>279.2</ele>
        <time>2014-03-12T16:17:45Z</time>
      </trkpt>
      <trkpt lat="43.420008" lon="1.324238">
        <ele>278.9</ele>
        <time>2014-03-12T16:17:54Z</time>
      </trkpt>
      <trkpt lat="43.419919" lon="1.324189">
        <ele>279.3</ele>
        <time>2014-03-12T16:18:03Z</time>
      </trkpt>
      <trkpt lat="43.419829" lon="1.324149">
        <ele>280.0</ele>
        <time>2014-03-12T16:18:12Z</time>
      </trkpt>
      <trkpt lat="43.419745" lon="1.324116">
        <ele>280.4</ele>
        <time>2014-03-12T16:18:20Z</time>
      </trkpt>
      <trkpt lat="43.419646" lon="1.324072">
        <ele>280.8</ele>
        <time>2014-03-12T16:18:29Z</time>
      </trkpt>
      <trkpt lat="43.419556" lon="1.324033">
        <ele>280.2</ele>
        <time>2014-03-12T16:18:38Z</time>
      </trkpt>
      <trkpt lat="43.419462" lon="1.323982">
        <ele>280.8</ele>
        <time>2014-03-12T16:18:47Z</time>
      </trkpt>
      <trkpt lat="43.419372" lon="1.323928">
        <ele>280.7</ele>
        <time>2014-03-12T16:18:56Z</time>
      </trkpt>
      <trkpt lat="43.419276" lon="1.323877">
        <ele>280.5</ele>
        <time>2014-03-12T16:19:06Z</time>
      </trkpt>
      <trkpt lat="43.419184" lon="1.323841">
        <ele>280.7</ele>
        <time>2014-03-12T16:19:15Z</time>
      </trkpt>
      <trkpt lat="43.419074" lon="1.323835">
        <ele>280.1</ele>
        <time>2014-03-12T16:19:26Z</time>
      </trkpt>
      <trkpt lat="43.418977" lon="1.323812">
        <ele>279.8</ele>
        <time>2014-03-12T16:19:38Z</time>
      </trkpt>
      <trkpt lat="43.418922" lon="1.323837">
        <ele>277.8</ele>
        <time>2014-03-12T16:20:14Z</time>
      </trkpt>
      <trkpt lat="43.418821" lon="1.323850">
        <ele>277.3</ele>
        <time>2014-03-12T16:20:24Z</time>
      </trkpt>
      <trkpt lat="43.418751" lon="1.323845">
        <ele>275.5</ele>
        <time>2014-03-12T16:20:48Z</time>
      </trkpt>
      <trkpt lat="43.418664" lon="1.323837">
        <ele>274.7</ele>
        <time>2014-03-12T16:21:29Z</time>
      </trkpt>
      <trkpt lat="43.418556" lon="1.323801">
        <ele>272.4</ele>
        <time>2014-03-12T16:21:46Z</time>
      </trkpt>
      <trkpt lat="43.418456" lon="1.323763">
        <ele>269.9</ele>
        <time>2014-03-12T16:21:59Z</time>
      </trkpt>
      <trkpt lat="43.418365" lon="1.323727">
        <ele>268.0</ele>
        <time>2014-03-12T16:22:10Z</time>
      </trkpt>
      <trkpt lat="43.418261" lon="1.323719">
        <ele>266.5</ele>
        <time>2014-03-12T16:22:21Z</time>
      </trkpt>
      <trkpt lat="43.418161" lon="1.323691">
        <ele>265.3</ele>
        <time>2014-03-12T16:22:32Z</time>
      </trkpt>
      <trkpt lat="43.418065" lon="1.323671">
        <ele>264.1</ele>
        <time>2014-03-12T16:22:43Z</time>
      </trkpt>
      <trkpt lat="43.417958" lon="1.323655">
        <ele>262.4</ele>
        <time>2014-03-12T16:22:56Z</time>
      </trkpt>
      <trkpt lat="43.417857" lon="1.323610">
        <ele>260.4</ele>
        <time>2014-03-12T16:23:12Z</time>
      </trkpt>
      <trkpt lat="43.417758" lon="1.323562">
        <ele>258.2</ele>
        <time>2014-03-12T16:23:29Z</time>
      </trkpt>
      <trkpt lat="43.417634" lon="1.323548">
        <ele>256.6</ele>
        <time>2014-03-12T16:23:43Z</time>
      </trkpt>
      <trkpt lat="43.417539" lon="1.323484">
        <ele>256.2</ele>
        <time>2014-03-12T16:23:56Z</time>
      </trkpt>
      <trkpt lat="43.417427" lon="1.323473">
        <ele>255.2</ele>
        <time>2014-03-12T16:24:08Z</time>
      </trkpt>
      <trkpt lat="43.417323" lon="1.323459">
        <ele>253.8</ele>
        <time>2014-03-12T16:24:21Z</time>
      </trkpt>
      <trkpt lat="43.417210" lon="1.323429">
        <ele>253.5</ele>
        <time>2014-03-12T16:24:33Z</time>
      </trkpt>
      <trkpt lat="43.417100" lon="1.323404">
        <ele>252.5</ele>
        <time>2014-03-12T16:24:44Z</time>
      </trkpt>
      <trkpt lat="43.416999" lon="1.323387">
        <ele>251.4</ele>
        <time>2014-03-12T16:24:56Z</time>
      </trkpt>
      <trkpt lat="43.416880" lon="1.323383">
        <ele>251.0</ele>
        <time>2014-03-12T16:25:07Z</time>
      </trkpt>
      <trkpt lat="43.416785" lon="1.323316">
        <ele>250.5</ele>
        <time>2014-03-12T16:25:20Z</time>
      </trkpt>
      <trkpt lat="43.416668" lon="1.323293">
        <ele>249.7</ele>
        <time>2014-03-12T16:25:34Z</time>
      </trkpt>
      <trkpt lat="43.416547" lon="1.323280">
        <ele>248.8</ele>
        <time>2014-03-12T16:25:46Z</time>
      </trkpt>
      <trkpt lat="43.416431" lon="1.323262">
        <ele>248.4</ele>
        <time>2014-03-12T16:25:58Z</time>
      </trkpt>
      <trkpt lat="43.416297" lon="1.323223">
        <ele>248.2</ele>
        <time>2014-03-12T16:26:12Z</time>
        <name>Variante PR27</name>
      </trkpt>
      <trkpt lat="43.416211" lon="1.323183">
        <ele>249.5</ele>
        <time>2014-03-12T16:26:31Z</time>
      </trkpt>
      <trkpt lat="43.416076" lon="1.323166">
        <ele>249.8</ele>
        <time>2014-03-12T16:26:46Z</time>
      </trkpt>
      <trkpt lat="43.415945" lon="1.323203">
        <ele>250.4</ele>
        <time>2014-03-12T16:27:01Z</time>
      </trkpt>
      <trkpt lat="43.415832" lon="1.323272">
        <ele>251.0</ele>
        <time>2014-03-12T16:27:16Z</time>
      </trkpt>
      <trkpt lat="43.415754" lon="1.323408">
        <ele>251.7</ele>
        <time>2014-03-12T16:27:30Z</time>
      </trkpt>
      <trkpt lat="43.415671" lon="1.323488">
        <ele>251.4</ele>
        <time>2014-03-12T16:27:42Z</time>
      </trkpt>
      <trkpt lat="43.415570" lon="1.323524">
        <ele>251.8</ele>
        <time>2014-03-12T16:27:54Z</time>
      </trkpt>
      <trkpt lat="43.415469" lon="1.323546">
        <ele>252.0</ele>
        <time>2014-03-12T16:28:06Z</time>
      </trkpt>
      <trkpt lat="43.415370" lon="1.323596">
        <ele>253.8</ele>
        <time>2014-03-12T16:28:19Z</time>
      </trkpt>
      <trkpt lat="43.415267" lon="1.323679">
        <ele>255.0</ele>
        <time>2014-03-12T16:28:33Z</time>
      </trkpt>
      <trkpt lat="43.415157" lon="1.323728">
        <ele>256.7</ele>
        <time>2014-03-12T16:28:49Z</time>
      </trkpt>
      <trkpt lat="43.415090" lon="1.323844">
        <ele>257.5</ele>
        <time>2014-03-12T16:29:09Z</time>
      </trkpt>
      <trkpt lat="43.414985" lon="1.323852">
        <ele>258.0</ele>
        <time>2014-03-12T16:29:18Z</time>
      </trkpt>
      <trkpt lat="43.414886" lon="1.323866">
        <ele>258.8</ele>
        <time>2014-03-12T16:29:30Z</time>
      </trkpt>
      <trkpt lat="43.414786" lon="1.323914">
        <ele>259.8</ele>
        <time>2014-03-12T16:29:41Z</time>
      </trkpt>
      <trkpt lat="43.414685" lon="1.323981">
        <ele>260.0</ele>
        <time>2014-03-12T16:29:52Z</time>
      </trkpt>
      <trkpt lat="43.414586" lon="1.324029">
        <ele>262.6</ele>
        <time>2014-03-12T16:30:08Z</time>
      </trkpt>
      <trkpt lat="43.414459" lon="1.324080">
        <ele>263.8</ele>
        <time>2014-03-12T16:30:27Z</time>
      </trkpt>
      <trkpt lat="43.414334" lon="1.324088">
        <ele>266.1</ele>
        <time>2014-03-12T16:30:44Z</time>
      </trkpt>
      <trkpt lat="43.414205" lon="1.324106">
        <ele>267.2</ele>
        <time>2014-03-12T16:30:59Z</time>
      </trkpt>
      <trkpt lat="43.414094" lon="1.324023">
        <ele>267.7</ele>
        <time>2014-03-12T16:31:13Z</time>
      </trkpt>
      <trkpt lat="43.414005" lon="1.323936">
        <ele>268.0</ele>
        <time>2014-03-12T16:31:24Z</time>
      </trkpt>
      <trkpt lat="43.413916" lon="1.323853">
        <ele>268.0</ele>
        <time>2014-03-12T16:31:36Z</time>
      </trkpt>
      <trkpt lat="43.413819" lon="1.323756">
        <ele>268.1</ele>
        <time>2014-03-12T16:31:46Z</time>
      </trkpt>
      <trkpt lat="43.413767" lon="1.323645">
        <ele>268.3</ele>
        <time>2014-03-12T16:31:58Z</time>
      </trkpt>
      <trkpt lat="43.413709" lon="1.323542">
        <ele>269.4</ele>
        <time>2014-03-12T16:32:10Z</time>
      </trkpt>
      <trkpt lat="43.413713" lon="1.323444">
        <ele>270.7</ele>
        <time>2014-03-12T16:32:49Z</time>
      </trkpt>
      <trkpt lat="43.413669" lon="1.323300">
        <ele>271.4</ele>
        <time>2014-03-12T16:33:16Z</time>
      </trkpt>
      <trkpt lat="43.413628" lon="1.323145">
        <ele>271.9</ele>
        <time>2014-03-12T16:33:32Z</time>
      </trkpt>
      <trkpt lat="43.413585" lon="1.322993">
        <ele>272.7</ele>
        <time>2014-03-12T16:33:47Z</time>
      </trkpt>
      <trkpt lat="43.413504" lon="1.322870">
        <ele>273.2</ele>
        <time>2014-03-12T16:33:58Z</time>
      </trkpt>
      <trkpt lat="43.413406" lon="1.322776">
        <ele>274.0</ele>
        <time>2014-03-12T16:34:12Z</time>
      </trkpt>
      <trkpt lat="43.413350" lon="1.322715">
        <ele>276.8</ele>
        <time>2014-03-12T16:35:05Z</time>
      </trkpt>
      <trkpt lat="43.413262" lon="1.322698">
        <ele>276.6</ele>
        <time>2014-03-12T16:35:27Z</time>
      </trkpt>
      <trkpt lat="43.413150" lon="1.322682">
        <ele>276.5</ele>
        <time>2014-03-12T16:35:40Z</time>
      </trkpt>
      <trkpt lat="43.413056" lon="1.322684">
        <ele>276.6</ele>
        <time>2014-03-12T16:35:51Z</time>
      </trkpt>
      <trkpt lat="43.412962" lon="1.322707">
        <ele>276.8</ele>
        <time>2014-03-12T16:36:03Z</time>
      </trkpt>
      <trkpt lat="43.412866" lon="1.322714">
        <ele>276.6</ele>
        <time>2014-03-12T16:36:14Z</time>
      </trkpt>
      <trkpt lat="43.412757" lon="1.322729">
        <ele>277.9</ele>
        <time>2014-03-12T16:36:27Z</time>
      </trkpt>
      <trkpt lat="43.412665" lon="1.322742">
        <ele>279.2</ele>
        <time>2014-03-12T16:36:39Z</time>
      </trkpt>
      <trkpt lat="43.412574" lon="1.322743">
        <ele>280.6</ele>
        <time>2014-03-12T16:36:50Z</time>
      </trkpt>
      <trkpt lat="43.412478" lon="1.322739">
        <ele>281.8</ele>
        <time>2014-03-12T16:37:00Z</time>
      </trkpt>
      <trkpt lat="43.412375" lon="1.322738">
        <ele>282.8</ele>
        <time>2014-03-12T16:37:11Z</time>
      </trkpt>
      <trkpt lat="43.412265" lon="1.322752">
        <ele>284.6</ele>
        <time>2014-03-12T16:37:23Z</time>
      </trkpt>
      <trkpt lat="43.412145" lon="1.322791">
        <ele>286.1</ele>
        <time>2014-03-12T16:37:37Z</time>
      </trkpt>
      <trkpt lat="43.412027" lon="1.322805">
        <ele>286.7</ele>
        <time>2014-03-12T16:37:50Z</time>
      </trkpt>
      <trkpt lat="43.411906" lon="1.322803">
        <ele>287.1</ele>
        <time>2014-03-12T16:38:06Z</time>
      </trkpt>
      <trkpt lat="43.411786" lon="1.322823">
        <ele>287.5</ele>
        <time>2014-03-12T16:38:22Z</time>
      </trkpt>
      <trkpt lat="43.411664" lon="1.322838">
        <ele>286.5</ele>
        <time>2014-03-12T16:38:34Z</time>
      </trkpt>
      <trkpt lat="43.411560" lon="1.322852">
        <ele>284.1</ele>
        <time>2014-03-12T16:38:46Z</time>
      </trkpt>
      <trkpt lat="43.411407" lon="1.322851">
        <ele>282.5</ele>
        <time>2014-03-12T16:39:02Z</time>
      </trkpt>
      <trkpt lat="43.411271" lon="1.322817">
        <ele>280.5</ele>
        <time>2014-03-12T16:39:15Z</time>
      </trkpt>
      <trkpt lat="43.411169" lon="1.322751">
        <ele>278.9</ele>
        <time>2014-03-12T16:39:26Z</time>
      </trkpt>
      <trkpt lat="43.411076" lon="1.322677">
        <ele>277.1</ele>
        <time>2014-03-12T16:39:37Z</time>
      </trkpt>
      <trkpt lat="43.411001" lon="1.322610">
        <ele>275.4</ele>
        <time>2014-03-12T16:39:47Z</time>
      </trkpt>
      <trkpt lat="43.410920" lon="1.322533">
        <ele>273.6</ele>
        <time>2014-03-12T16:39:57Z</time>
      </trkpt>
      <trkpt lat="43.410838" lon="1.322457">
        <ele>272.6</ele>
        <time>2014-03-12T16:40:08Z</time>
      </trkpt>
      <trkpt lat="43.410749" lon="1.322382">
        <ele>271.6</ele>
        <time>2014-03-12T16:40:20Z</time>
      </trkpt>
      <trkpt lat="43.410664" lon="1.322315">
        <ele>270.5</ele>
        <time>2014-03-12T16:40:30Z</time>
      </trkpt>
      <trkpt lat="43.410575" lon="1.322251">
        <ele>269.4</ele>
        <time>2014-03-12T16:40:40Z</time>
      </trkpt>
      <trkpt lat="43.410493" lon="1.322190">
        <ele>268.7</ele>
        <time>2014-03-12T16:40:50Z</time>
      </trkpt>
      <trkpt lat="43.410409" lon="1.322131">
        <ele>267.7</ele>
        <time>2014-03-12T16:41:01Z</time>
      </trkpt>
      <trkpt lat="43.410333" lon="1.322064">
        <ele>266.8</ele>
        <time>2014-03-12T16:41:11Z</time>
      </trkpt>
      <trkpt lat="43.410247" lon="1.321996">
        <ele>266.0</ele>
        <time>2014-03-12T16:41:21Z</time>
      </trkpt>
      <trkpt lat="43.410174" lon="1.321923">
        <ele>265.4</ele>
        <time>2014-03-12T16:41:32Z</time>
      </trkpt>
      <trkpt lat="43.410090" lon="1.321870">
        <ele>264.5</ele>
        <time>2014-03-12T16:41:43Z</time>
      </trkpt>
      <trkpt lat="43.410017" lon="1.321819">
        <ele>263.6</ele>
        <time>2014-03-12T16:41:52Z</time>
      </trkpt>
      <trkpt lat="43.409940" lon="1.321747">
        <ele>263.2</ele>
        <time>2014-03-12T16:42:03Z</time>
      </trkpt>
      <trkpt lat="43.409856" lon="1.321684">
        <ele>262.3</ele>
        <time>2014-03-12T16:42:13Z</time>
      </trkpt>
      <trkpt lat="43.409777" lon="1.321600">
        <ele>261.0</ele>
        <time>2014-03-12T16:42:22Z</time>
      </trkpt>
      <trkpt lat="43.409684" lon="1.321523">
        <ele>259.5</ele>
        <time>2014-03-12T16:42:32Z</time>
      </trkpt>
      <trkpt lat="43.409598" lon="1.321450">
        <ele>259.6</ele>
        <time>2014-03-12T16:42:43Z</time>
      </trkpt>
      <trkpt lat="43.409515" lon="1.321375">
        <ele>258.8</ele>
        <time>2014-03-12T16:42:53Z</time>
      </trkpt>
      <trkpt lat="43.409419" lon="1.321309">
        <ele>257.7</ele>
        <time>2014-03-12T16:43:04Z</time>
      </trkpt>
      <trkpt lat="43.409334" lon="1.321232">
        <ele>257.3</ele>
        <time>2014-03-12T16:43:14Z</time>
      </trkpt>
      <trkpt lat="43.409257" lon="1.321144">
        <ele>257.1</ele>
        <time>2014-03-12T16:43:23Z</time>
      </trkpt>
      <trkpt lat="43.409161" lon="1.321075">
        <ele>256.5</ele>
        <time>2014-03-12T16:43:32Z</time>
      </trkpt>
      <trkpt lat="43.409081" lon="1.321005">
        <ele>256.0</ele>
        <time>2014-03-12T16:43:41Z</time>
      </trkpt>
      <trkpt lat="43.408989" lon="1.320933">
        <ele>255.1</ele>
        <time>2014-03-12T16:43:50Z</time>
      </trkpt>
      <trkpt lat="43.408902" lon="1.320885">
        <ele>254.1</ele>
        <time>2014-03-12T16:43:59Z</time>
      </trkpt>
      <trkpt lat="43.408806" lon="1.320868">
        <ele>253.9</ele>
        <time>2014-03-12T16:44:08Z</time>
      </trkpt>
      <trkpt lat="43.408720" lon="1.320857">
        <ele>253.4</ele>
        <time>2014-03-12T16:44:18Z</time>
      </trkpt>
      <trkpt lat="43.408624" lon="1.320842">
        <ele>252.9</ele>
        <time>2014-03-12T16:44:26Z</time>
      </trkpt>
      <trkpt lat="43.408513" lon="1.320839">
        <ele>252.6</ele>
        <time>2014-03-12T16:44:36Z</time>
      </trkpt>
      <trkpt lat="43.408417" lon="1.320848">
        <ele>253.0</ele>
        <time>2014-03-12T16:44:45Z</time>
      </trkpt>
      <trkpt lat="43.408321" lon="1.320845">
        <ele>253.9</ele>
        <time>2014-03-12T16:44:54Z</time>
      </trkpt>
      <trkpt lat="43.408224" lon="1.320838">
        <ele>254.1</ele>
        <time>2014-03-12T16:45:04Z</time>
        <name>La Tuilerie</name>
      </trkpt>
      <trkpt lat="43.408123" lon="1.320837">
        <ele>254.5</ele>
        <time>2014-03-12T16:45:14Z</time>
      </trkpt>
      <trkpt lat="43.408031" lon="1.320830">
        <ele>254.3</ele>
        <time>2014-03-12T16:45:23Z</time>
      </trkpt>
      <trkpt lat="43.407912" lon="1.320815">
        <ele>254.3</ele>
        <time>2014-03-12T16:45:34Z</time>
      </trkpt>
      <trkpt lat="43.407816" lon="1.320768">
        <ele>253.9</ele>
        <time>2014-03-12T16:45:44Z</time>
      </trkpt>
      <trkpt lat="43.407734" lon="1.320687">
        <ele>254.1</ele>
        <time>2014-03-12T16:45:54Z</time>
      </trkpt>
      <trkpt lat="43.407643" lon="1.320619">
        <ele>253.8</ele>
        <time>2014-03-12T16:46:04Z</time>
      </trkpt>
      <trkpt lat="43.407601" lon="1.320598">
        <ele>253.5</ele>
        <time>2014-03-12T16:46:15Z</time>
      </trkpt>
      <trkpt lat="43.407617" lon="1.320467">
        <ele>253.7</ele>
        <time>2014-03-12T16:46:27Z</time>
      </trkpt>
      <trkpt lat="43.407561" lon="1.320461">
        <ele>253.4</ele>
        <time>2014-03-12T16:46:44Z</time>
      </trkpt>
      <trkpt lat="43.407589" lon="1.320345">
        <ele>253.1</ele>
        <time>2014-03-12T16:46:56Z</time>
      </trkpt>
      <trkpt lat="43.407571" lon="1.320208">
        <ele>252.6</ele>
        <time>2014-03-12T16:47:06Z</time>
      </trkpt>
      <trkpt lat="43.407533" lon="1.320073">
        <ele>251.4</ele>
        <time>2014-03-12T16:47:18Z</time>
      </trkpt>
      <trkpt lat="43.407493" lon="1.319923">
        <ele>250.0</ele>
        <time>2014-03-12T16:47:32Z</time>
      </trkpt>
      <trkpt lat="43.407447" lon="1.319771">
        <ele>249.0</ele>
        <time>2014-03-12T16:47:43Z</time>
      </trkpt>
      <trkpt lat="43.407396" lon="1.319653">
        <ele>247.6</ele>
        <time>2014-03-12T16:47:53Z</time>
      </trkpt>
      <trkpt lat="43.407359" lon="1.319503">
        <ele>245.6</ele>
        <time>2014-03-12T16:48:03Z</time>
      </trkpt>
      <trkpt lat="43.407327" lon="1.319400">
        <ele>243.6</ele>
        <time>2014-03-12T16:48:12Z</time>
      </trkpt>
      <trkpt lat="43.407282" lon="1.319278">
        <ele>240.8</ele>
        <time>2014-03-12T16:48:24Z</time>
      </trkpt>
      <trkpt lat="43.407232" lon="1.319140">
        <ele>238.9</ele>
        <time>2014-03-12T16:48:36Z</time>
      </trkpt>
      <trkpt lat="43.407195" lon="1.318986">
        <ele>236.9</ele>
        <time>2014-03-12T16:48:49Z</time>
      </trkpt>
      <trkpt lat="43.407174" lon="1.318803">
        <ele>236.1</ele>
        <time>2014-03-12T16:48:59Z</time>
      </trkpt>
      <trkpt lat="43.407163" lon="1.318652">
        <ele>234.7</ele>
        <time>2014-03-12T16:49:11Z</time>
      </trkpt>
      <trkpt lat="43.407212" lon="1.318558">
        <ele>234.0</ele>
        <time>2014-03-12T16:49:35Z</time>
      </trkpt>
      <trkpt lat="43.407217" lon="1.318376">
        <ele>233.6</ele>
        <time>2014-03-12T16:49:49Z</time>
      </trkpt>
      <trkpt lat="43.407151" lon="1.318174">
        <ele>232.4</ele>
        <time>2014-03-12T16:50:04Z</time>
      </trkpt>
      <trkpt lat="43.407115" lon="1.317960">
        <ele>231.4</ele>
        <time>2014-03-12T16:50:15Z</time>
      </trkpt>
      <trkpt lat="43.407100" lon="1.317797">
        <ele>230.8</ele>
        <time>2014-03-12T16:50:27Z</time>
      </trkpt>
      <trkpt lat="43.407083" lon="1.317625">
        <ele>229.9</ele>
        <time>2014-03-12T16:50:37Z</time>
      </trkpt>
      <trkpt lat="43.407067" lon="1.317475">
        <ele>228.5</ele>
        <time>2014-03-12T16:50:50Z</time>
      </trkpt>
      <trkpt lat="43.407049" lon="1.317287">
        <ele>227.7</ele>
        <time>2014-03-12T16:51:02Z</time>
      </trkpt>
      <trkpt lat="43.407043" lon="1.317125">
        <ele>227.0</ele>
        <time>2014-03-12T16:51:13Z</time>
      </trkpt>
      <trkpt lat="43.407027" lon="1.316958">
        <ele>226.4</ele>
        <time>2014-03-12T16:51:27Z</time>
      </trkpt>
      <trkpt lat="43.407015" lon="1.316785">
        <ele>226.1</ele>
        <time>2014-03-12T16:51:41Z</time>
      </trkpt>
      <trkpt lat="43.407035" lon="1.316627">
        <ele>226.0</ele>
        <time>2014-03-12T16:51:57Z</time>
      </trkpt>
      <trkpt lat="43.407049" lon="1.316472">
        <ele>225.4</ele>
        <time>2014-03-12T16:52:10Z</time>
      </trkpt>
      <trkpt lat="43.407036" lon="1.316314">
        <ele>224.7</ele>
        <time>2014-03-12T16:52:21Z</time>
      </trkpt>
      <trkpt lat="43.407038" lon="1.316181">
        <ele>224.1</ele>
        <time>2014-03-12T16:52:32Z</time>
      </trkpt>
      <trkpt lat="43.407033" lon="1.316029">
        <ele>223.1</ele>
        <time>2014-03-12T16:52:42Z</time>
      </trkpt>
      <trkpt lat="43.407044" lon="1.315884">
        <ele>222.2</ele>
        <time>2014-03-12T16:52:52Z</time>
      </trkpt>
      <trkpt lat="43.407028" lon="1.315719">
        <ele>221.6</ele>
        <time>2014-03-12T16:53:04Z</time>
      </trkpt>
      <trkpt lat="43.407062" lon="1.315569">
        <ele>221.2</ele>
        <time>2014-03-12T16:53:16Z</time>
      </trkpt>
      <trkpt lat="43.407064" lon="1.315429">
        <ele>220.4</ele>
        <time>2014-03-12T16:53:25Z</time>
      </trkpt>
      <trkpt lat="43.407079" lon="1.315289">
        <ele>218.9</ele>
        <time>2014-03-12T16:53:38Z</time>
      </trkpt>
      <trkpt lat="43.407072" lon="1.315095">
        <ele>217.7</ele>
        <time>2014-03-12T16:53:51Z</time>
      </trkpt>
      <trkpt lat="43.407079" lon="1.314938">
        <ele>217.1</ele>
        <time>2014-03-12T16:54:03Z</time>
      </trkpt>
      <trkpt lat="43.407104" lon="1.314796">
        <ele>216.1</ele>
        <time>2014-03-12T16:54:16Z</time>
      </trkpt>
      <trkpt lat="43.407127" lon="1.314682">
        <ele>215.0</ele>
        <time>2014-03-12T16:54:34Z</time>
      </trkpt>
      <trkpt lat="43.407137" lon="1.314525">
        <ele>213.9</ele>
        <time>2014-03-12T16:54:46Z</time>
      </trkpt>
      <trkpt lat="43.407120" lon="1.314356">
        <ele>211.9</ele>
        <time>2014-03-12T16:54:58Z</time>
      </trkpt>
      <trkpt lat="43.407114" lon="1.314178">
        <ele>210.0</ele>
        <time>2014-03-12T16:55:11Z</time>
      </trkpt>
      <trkpt lat="43.407083" lon="1.313987">
        <ele>208.1</ele>
        <time>2014-03-12T16:55:26Z</time>
      </trkpt>
      <trkpt lat="43.407071" lon="1.313840">
        <ele>207.9</ele>
        <time>2014-03-12T16:55:37Z</time>
      </trkpt>
      <trkpt lat="43.407046" lon="1.313664">
        <ele>206.9</ele>
        <time>2014-03-12T16:55:51Z</time>
      </trkpt>
      <trkpt lat="43.406989" lon="1.313517">
        <ele>204.6</ele>
        <time>2014-03-12T16:56:09Z</time>
      </trkpt>
      <trkpt lat="43.406945" lon="1.313319">
        <ele>203.3</ele>
        <time>2014-03-12T16:56:23Z</time>
      </trkpt>
      <trkpt lat="43.406887" lon="1.313121">
        <ele>202.0</ele>
        <time>2014-03-12T16:56:38Z</time>
      </trkpt>
      <trkpt lat="43.406825" lon="1.312911">
        <ele>200.5</ele>
        <time>2014-03-12T16:56:51Z</time>
      </trkpt>
      <trkpt lat="43.406698" lon="1.312777">
        <ele>199.0</ele>
        <time>2014-03-12T16:57:04Z</time>
      </trkpt>
      <trkpt lat="43.406577" lon="1.312621">
        <ele>197.5</ele>
        <time>2014-03-12T16:57:19Z</time>
      </trkpt>
      <trkpt lat="43.406512" lon="1.312479">
        <ele>195.4</ele>
        <time>2014-03-12T16:57:31Z</time>
      </trkpt>
      <trkpt lat="43.406417" lon="1.312331">
        <ele>193.4</ele>
        <time>2014-03-12T16:57:43Z</time>
      </trkpt>
      <trkpt lat="43.406332" lon="1.312332">
        <ele>192.4</ele>
        <time>2014-03-12T16:58:03Z</time>
      </trkpt>
      <trkpt lat="43.406308" lon="1.312340">
        <ele>192.1</ele>
        <time>2014-03-12T16:58:49Z</time>
      </trkpt>
      <trkpt lat="43.406299" lon="1.312291">
        <ele>192.4</ele>
        <time>2014-03-12T16:59:18Z</time>
      </trkpt>
      <trkpt lat="43.406264" lon="1.312115">
        <ele>191.7</ele>
        <time>2014-03-12T16:59:36Z</time>
      </trkpt>
      <trkpt lat="43.406273" lon="1.311917">
        <ele>191.6</ele>
        <time>2014-03-12T16:59:51Z</time>
      </trkpt>
      <trkpt lat="43.406255" lon="1.311726">
        <ele>190.2</ele>
        <time>2014-03-12T17:00:03Z</time>
      </trkpt>
      <trkpt lat="43.406223" lon="1.311599">
        <ele>188.5</ele>
        <time>2014-03-12T17:00:15Z</time>
      </trkpt>
      <trkpt lat="43.406185" lon="1.311430">
        <ele>187.4</ele>
        <time>2014-03-12T17:00:28Z</time>
      </trkpt>
      <trkpt lat="43.406156" lon="1.311282">
        <ele>184.6</ele>
        <time>2014-03-12T17:00:41Z</time>
      </trkpt>
      <trkpt lat="43.406132" lon="1.311134">
        <ele>181.7</ele>
        <time>2014-03-12T17:00:56Z</time>
      </trkpt>
      <trkpt lat="43.406127" lon="1.310958">
        <ele>179.4</ele>
        <time>2014-03-12T17:01:11Z</time>
      </trkpt>
      <trkpt lat="43.406148" lon="1.310747">
        <ele>176.8</ele>
        <time>2014-03-12T17:01:29Z</time>
      </trkpt>
      <trkpt lat="43.406130" lon="1.310586">
        <ele>176.1</ele>
        <time>2014-03-12T17:01:44Z</time>
      </trkpt>
      <trkpt lat="43.406108" lon="1.310387">
        <ele>175.4</ele>
        <time>2014-03-12T17:02:00Z</time>
      </trkpt>
      <trkpt lat="43.406112" lon="1.310207">
        <ele>174.8</ele>
        <time>2014-03-12T17:02:13Z</time>
      </trkpt>
      <trkpt lat="43.406165" lon="1.310012">
        <ele>174.1</ele>
        <time>2014-03-12T17:02:28Z</time>
      </trkpt>
      <trkpt lat="43.406235" lon="1.309813">
        <ele>173.9</ele>
        <time>2014-03-12T17:02:42Z</time>
      </trkpt>
      <trkpt lat="43.406284" lon="1.309651">
        <ele>173.7</ele>
        <time>2014-03-12T17:02:55Z</time>
      </trkpt>
      <trkpt lat="43.406328" lon="1.309492">
        <ele>173.1</ele>
        <time>2014-03-12T17:03:10Z</time>
      </trkpt>
      <trkpt lat="43.406415" lon="1.309398">
        <ele>172.6</ele>
        <time>2014-03-12T17:03:23Z</time>
      </trkpt>
      <trkpt lat="43.406518" lon="1.309379">
        <ele>172.8</ele>
        <time>2014-03-12T17:03:34Z</time>
      </trkpt>
      <trkpt lat="43.406655" lon="1.309383">
        <ele>172.8</ele>
        <time>2014-03-12T17:03:45Z</time>
      </trkpt>
      <trkpt lat="43.406762" lon="1.309359">
        <ele>172.5</ele>
        <time>2014-03-12T17:03:55Z</time>
      </trkpt>
      <trkpt lat="43.406880" lon="1.309363">
        <ele>172.6</ele>
        <time>2014-03-12T17:04:04Z</time>
      </trkpt>
      <trkpt lat="43.407002" lon="1.309354">
        <ele>172.3</ele>
        <time>2014-03-12T17:04:13Z</time>
      </trkpt>
      <trkpt lat="43.407128" lon="1.309362">
        <ele>171.6</ele>
        <time>2014-03-12T17:04:22Z</time>
      </trkpt>
      <trkpt lat="43.407227" lon="1.309364">
        <ele>171.6</ele>
        <time>2014-03-12T17:04:31Z</time>
      </trkpt>
      <trkpt lat="43.407330" lon="1.309357">
        <ele>171.3</ele>
        <time>2014-03-12T17:04:40Z</time>
      </trkpt>
      <trkpt lat="43.407438" lon="1.309338">
        <ele>171.3</ele>
        <time>2014-03-12T17:04:50Z</time>
      </trkpt>
      <trkpt lat="43.407539" lon="1.309306">
        <ele>171.1</ele>
        <time>2014-03-12T17:05:02Z</time>
      </trkpt>
      <trkpt lat="43.407657" lon="1.309294">
        <ele>171.5</ele>
        <time>2014-03-12T17:05:14Z</time>
      </trkpt>
      <trkpt lat="43.407767" lon="1.309297">
        <ele>171.7</ele>
        <time>2014-03-12T17:05:24Z</time>
      </trkpt>
      <trkpt lat="43.407864" lon="1.309344">
        <ele>171.7</ele>
        <time>2014-03-12T17:05:35Z</time>
      </trkpt>
      <trkpt lat="43.407956" lon="1.309389">
        <ele>171.9</ele>
        <time>2014-03-12T17:05:45Z</time>
      </trkpt>
      <trkpt lat="43.408059" lon="1.309445">
        <ele>171.9</ele>
        <time>2014-03-12T17:05:55Z</time>
      </trkpt>
      <trkpt lat="43.408173" lon="1.309498">
        <ele>172.3</ele>
        <time>2014-03-12T17:06:06Z</time>
      </trkpt>
      <trkpt lat="43.408308" lon="1.309541">
        <ele>172.3</ele>
        <time>2014-03-12T17:06:16Z</time>
      </trkpt>
      <trkpt lat="43.408410" lon="1.309577">
        <ele>172.3</ele>
        <time>2014-03-12T17:06:26Z</time>
      </trkpt>
      <trkpt lat="43.408532" lon="1.309611">
        <ele>172.2</ele>
        <time>2014-03-12T17:06:36Z</time>
      </trkpt>
      <trkpt lat="43.408643" lon="1.309626">
        <ele>172.1</ele>
        <time>2014-03-12T17:06:45Z</time>
      </trkpt>
      <trkpt lat="43.408756" lon="1.309650">
        <ele>172.2</ele>
        <time>2014-03-12T17:06:55Z</time>
      </trkpt>
      <trkpt lat="43.408872" lon="1.309667">
        <ele>172.6</ele>
        <time>2014-03-12T17:07:06Z</time>
      </trkpt>
      <trkpt lat="43.408990" lon="1.309679">
        <ele>172.8</ele>
        <time>2014-03-12T17:07:17Z</time>
      </trkpt>
      <trkpt lat="43.409111" lon="1.309698">
        <ele>172.4</ele>
        <time>2014-03-12T17:07:27Z</time>
      </trkpt>
      <trkpt lat="43.409245" lon="1.309704">
        <ele>172.0</ele>
        <time>2014-03-12T17:07:40Z</time>
      </trkpt>
      <trkpt lat="43.409356" lon="1.309675">
        <ele>172.0</ele>
        <time>2014-03-12T17:07:51Z</time>
      </trkpt>
      <trkpt lat="43.409461" lon="1.309678">
        <ele>172.2</ele>
        <time>2014-03-12T17:08:04Z</time>
      </trkpt>
      <trkpt lat="43.409602" lon="1.309655">
        <ele>171.5</ele>
        <time>2014-03-12T17:08:15Z</time>
      </trkpt>
      <trkpt lat="43.409718" lon="1.309634">
        <ele>170.9</ele>
        <time>2014-03-12T17:08:26Z</time>
      </trkpt>
      <trkpt lat="43.409838" lon="1.309645">
        <ele>170.8</ele>
        <time>2014-03-12T17:08:36Z</time>
      </trkpt>
      <trkpt lat="43.409963" lon="1.309639">
        <ele>170.8</ele>
        <time>2014-03-12T17:08:46Z</time>
      </trkpt>
      <trkpt lat="43.410084" lon="1.309659">
        <ele>171.1</ele>
        <time>2014-03-12T17:08:57Z</time>
      </trkpt>
      <trkpt lat="43.410190" lon="1.309660">
        <ele>170.7</ele>
        <time>2014-03-12T17:09:06Z</time>
      </trkpt>
      <trkpt lat="43.410314" lon="1.309674">
        <ele>170.6</ele>
        <time>2014-03-12T17:09:15Z</time>
      </trkpt>
      <trkpt lat="43.410415" lon="1.309663">
        <ele>170.7</ele>
        <time>2014-03-12T17:09:23Z</time>
      </trkpt>
      <trkpt lat="43.410514" lon="1.309658">
        <ele>170.2</ele>
        <time>2014-03-12T17:09:32Z</time>
      </trkpt>
      <trkpt lat="43.410620" lon="1.309671">
        <ele>170.4</ele>
        <time>2014-03-12T17:09:42Z</time>
      </trkpt>
      <trkpt lat="43.410714" lon="1.309645">
        <ele>170.2</ele>
        <time>2014-03-12T17:09:52Z</time>
      </trkpt>
      <trkpt lat="43.410761" lon="1.309531">
        <ele>170.1</ele>
        <time>2014-03-12T17:10:05Z</time>
      </trkpt>
      <trkpt lat="43.410783" lon="1.309386">
        <ele>170.0</ele>
        <time>2014-03-12T17:10:15Z</time>
      </trkpt>
      <trkpt lat="43.410819" lon="1.309290">
        <ele>169.2</ele>
        <time>2014-03-12T17:10:48Z</time>
      </trkpt>
      <trkpt lat="43.410906" lon="1.309305">
        <ele>168.9</ele>
        <time>2014-03-12T17:11:10Z</time>
      </trkpt>
      <trkpt lat="43.411012" lon="1.309353">
        <ele>168.9</ele>
        <time>2014-03-12T17:11:27Z</time>
      </trkpt>
      <trkpt lat="43.411116" lon="1.309384">
        <ele>169.5</ele>
        <time>2014-03-12T17:11:44Z</time>
      </trkpt>
      <trkpt lat="43.411214" lon="1.309400">
        <ele>169.6</ele>
        <time>2014-03-12T17:11:58Z</time>
      </trkpt>
      <trkpt lat="43.411316" lon="1.309447">
        <ele>169.9</ele>
        <time>2014-03-12T17:12:10Z</time>
      </trkpt>
      <trkpt lat="43.411436" lon="1.309398">
        <ele>169.6</ele>
        <time>2014-03-12T17:12:23Z</time>
      </trkpt>
      <trkpt lat="43.411518" lon="1.309313">
        <ele>169.4</ele>
        <time>2014-03-12T17:12:36Z</time>
      </trkpt>
      <trkpt lat="43.411634" lon="1.309373">
        <ele>169.1</ele>
        <time>2014-03-12T17:12:48Z</time>
      </trkpt>
      <trkpt lat="43.411700" lon="1.309438">
        <ele>169.2</ele>
        <time>2014-03-12T17:12:57Z</time>
      </trkpt>
    </trkseg>
  </trk>
</gpx>

